Terminal Aerodrome Forecast
Issued by NWS

Home | Current Version | Previous Version | Text Only | Print | Product List | Glossary On
Versions: 1 2 3 4 5 6 7 8 9 10 11 12
000
FTPQ31 PGUM 212330
TAFGUM
TAF

TAF
PGSN 212330Z 2200/2224 06013KT P6SM VCSH SCT015 SCT060 BKN110
      TEMPO 2200/2202 4SM -SHRA SCT012 BKN030=

USA.gov is the U.S. government's official web portal to all federal, state and local government web resources and services.